createdAt,value
2018-10-06T00:00:53.979Z,1010.7
2018-10-06T00:05:53.744Z,1010.6
2018-10-06T00:10:53.802Z,1010.6
2018-10-06T00:15:53.784Z,1010.4
2018-10-06T00:20:53.482Z,1010.4
2018-10-06T00:25:53.230Z,1010.3
2018-10-06T00:30:54.055Z,1010.3
2018-10-06T00:35:53.955Z,1010.3
2018-10-06T00:40:53.748Z,1010.3
2018-10-06T00:45:53.471Z,1010.2
2018-10-06T00:50:53.258Z,1010.2
2018-10-06T00:55:54.094Z,1010.1
2018-10-06T01:00:53.869Z,1010.1
2018-10-06T01:05:53.164Z,1010.1
2018-10-06T01:10:53.264Z,1010.1
2018-10-06T01:15:54.120Z,1009.8
2018-10-06T01:20:53.910Z,1009.8
2018-10-06T01:25:53.575Z,1009.8
2018-10-06T01:30:53.377Z,1009.8
2018-10-06T01:35:53.537Z,1009.7
2018-10-06T01:40:53.337Z,1009.7
2018-10-06T01:45:54.435Z,1009.7
2018-10-06T01:50:54.271Z,1009.7
2018-10-06T01:55:54.000Z,1009.7
2018-10-06T02:00:53.849Z,1009.7
2018-10-06T02:05:53.643Z,1009.6
2018-10-06T02:10:53.359Z,1009.6
2018-10-06T02:15:54.228Z,1009.4
2018-10-06T02:20:54.171Z,1009.4
2018-10-06T02:25:53.870Z,1009.4
2018-10-06T02:30:53.706Z,1009.4
2018-10-06T02:35:53.739Z,1009.4
2018-10-06T02:40:53.567Z,1009.4
2018-10-06T02:45:53.255Z,1009.3
2018-10-06T02:50:54.060Z,1009.3
2018-10-06T02:55:54.123Z,1009.2
2018-10-06T03:00:53.938Z,1009.2
2018-10-06T03:05:53.658Z,1009.1
2018-10-06T03:10:53.671Z,1009.1
2018-10-06T03:15:53.523Z,1008.8
2018-10-06T03:20:54.264Z,1008.8
2018-10-06T03:25:53.930Z,1008.8
2018-10-06T03:30:53.727Z,1008.8
2018-10-06T03:35:53.812Z,1008.7
2018-10-06T03:40:53.540Z,1008.7
2018-10-06T03:45:54.212Z,1008.7
2018-10-06T03:50:53.946Z,1008.7
2018-10-06T03:55:53.749Z,1008.7
2018-10-06T04:00:53.588Z,1008.7
2018-10-06T04:06:03.712Z,1008.7
2018-10-06T04:10:53.517Z,1008.7
2018-10-06T04:15:54.432Z,1008.7
2018-10-06T04:20:54.192Z,1008.7
2018-10-06T04:25:54.090Z,1008.6
2018-10-06T04:30:54.023Z,1008.6
2018-10-06T04:35:53.986Z,1008.6
2018-10-06T04:40:53.786Z,1008.6
2018-10-06T04:45:53.601Z,1008.3
2018-10-06T04:50:54.446Z,1008.3
2018-10-06T04:55:54.255Z,1008.3
2018-10-06T05:00:54.168Z,1008.3
2018-10-06T05:05:53.856Z,1008.3
2018-10-06T05:10:53.687Z,1008.3
2018-10-06T05:15:54.378Z,1008.3
2018-10-06T05:20:54.091Z,1008.3
2018-10-06T05:25:53.818Z,1008.3
2018-10-06T05:30:53.785Z,1008.3
2018-10-06T05:35:53.710Z,1008.3
2018-10-06T05:40:53.443Z,1008.3
2018-10-06T05:45:54.220Z,1008.4
2018-10-06T05:50:53.926Z,1008.4
2018-10-06T05:55:53.681Z,1008.3
2018-10-06T06:00:54.522Z,1008.3
2018-10-06T06:05:54.006Z,1008.2
2018-10-06T06:10:53.713Z,1008.2
2018-10-06T06:15:53.491Z,1008.2
2018-10-06T06:20:54.319Z,1008.2
2018-10-06T06:25:54.182Z,1008.2
2018-10-06T06:30:54.118Z,1008.2
2018-10-06T06:35:53.909Z,1008.2
2018-10-06T06:40:53.706Z,1008.2
2018-10-06T06:45:54.602Z,1008.1
2018-10-06T06:50:54.457Z,1008.1
2018-10-06T06:55:54.230Z,1008.2
2018-10-06T07:00:54.126Z,1008.2
2018-10-06T07:05:54.061Z,1008.1
2018-10-06T07:10:53.931Z,1008.1
2018-10-06T07:15:53.662Z,1007.9
2018-10-06T07:20:54.532Z,1007.9
2018-10-06T07:25:54.296Z,1007.9
2018-10-06T07:30:54.115Z,1007.9
2018-10-06T07:35:54.022Z,1007.8
2018-10-06T07:40:53.796Z,1007.8
2018-10-06T07:45:54.569Z,1007.7
2018-10-06T07:50:54.399Z,1007.7
2018-10-06T07:55:54.115Z,1007.8
2018-10-06T08:00:54.108Z,1007.8
2018-10-06T08:05:53.927Z,1007.9
2018-10-06T08:10:53.734Z,1007.9
2018-10-06T08:15:54.489Z,1007.5
2018-10-06T08:20:54.324Z,1007.5
2018-10-06T08:25:54.366Z,1007.5
2018-10-06T08:30:54.249Z,1007.5
2018-10-06T08:35:54.126Z,1007.4
2018-10-06T08:40:53.804Z,1007.4
2018-10-06T08:45:54.546Z,1007.4
2018-10-06T08:50:54.319Z,1007.4
2018-10-06T08:55:54.318Z,1007.4
2018-10-06T09:00:54.372Z,1007.4
2018-10-06T09:05:54.643Z,1007.4
2018-10-06T09:10:53.723Z,1007.4
2018-10-06T09:15:54.613Z,1007.2
2018-10-06T09:20:54.501Z,1007.2
2018-10-06T09:25:54.321Z,1007.1
2018-10-06T09:30:54.261Z,1007.1
2018-10-06T09:35:54.154Z,1007.1
2018-10-06T09:40:53.848Z,1007.1
2018-10-06T09:45:54.688Z,1007
2018-10-06T09:50:54.555Z,1007
2018-10-06T09:55:54.349Z,1007
2018-10-06T10:00:54.216Z,1007
2018-10-06T10:05:54.089Z,1006.9
2018-10-06T10:10:53.906Z,1006.9
2018-10-06T10:15:54.789Z,1006.9
2018-10-06T10:20:54.703Z,1006.9
2018-10-06T10:25:54.601Z,1006.9
2018-10-06T10:30:54.436Z,1006.9
2018-10-06T10:35:54.184Z,1006.9
2018-10-06T10:40:54.022Z,1006.9
2018-10-06T10:45:54.066Z,1006.7
2018-10-06T10:50:53.860Z,1006.7
2018-10-06T10:55:54.615Z,1006.7
2018-10-06T11:00:54.546Z,1006.7
2018-10-06T11:05:53.792Z,1006.7
2018-10-06T11:10:54.608Z,1006.7
2018-10-06T11:15:54.421Z,1006.5
2018-10-06T11:20:54.264Z,1006.5
2018-10-06T11:25:54.177Z,1006.4
2018-10-06T11:30:54.026Z,1006.4
2018-10-06T11:35:54.797Z,1006.3
2018-10-06T11:40:54.695Z,1006.3
2018-10-06T11:45:54.460Z,1006.2
2018-10-06T11:50:54.240Z,1006.2
2018-10-06T11:55:54.045Z,1006.2
2018-10-06T12:00:53.961Z,1006.2
2018-10-06T12:05:54.582Z,1006.2
2018-10-06T12:10:54.528Z,1006.2
2018-10-06T12:15:54.303Z,1005.9
2018-10-06T12:20:54.116Z,1005.9
2018-10-06T12:25:53.885Z,1005.9
2018-10-06T12:30:54.814Z,1005.9
2018-10-06T12:35:53.988Z,1005.8
2018-10-06T12:40:53.889Z,1005.8
2018-10-06T12:45:54.615Z,1005.7
2018-10-06T12:50:54.459Z,1005.7
2018-10-06T12:55:54.008Z,1005.6
2018-10-06T13:00:54.770Z,1005.6
2018-10-06T13:05:54.252Z,1005.5
2018-10-06T13:10:54.659Z,1005.5
2018-10-06T13:15:54.505Z,1005.4
2018-10-06T13:20:54.318Z,1005.4
2018-10-06T13:25:54.683Z,1005.4
2018-10-06T13:30:54.250Z,1005.4
2018-10-06T13:35:54.104Z,1005.4
2018-10-06T13:40:54.900Z,1005.4
2018-10-06T13:45:54.932Z,1005.3
2018-10-06T13:50:54.693Z,1005.3
2018-10-06T13:55:54.625Z,1005.3
2018-10-06T14:00:54.514Z,1005.3
2018-10-06T14:05:54.663Z,1005.3
2018-10-06T14:10:54.650Z,1005.3
2018-10-06T14:15:54.502Z,1005.1
2018-10-06T14:20:54.301Z,1005.1
2018-10-06T14:25:54.029Z,1005.1
2018-10-06T14:30:54.797Z,1005.1
2018-10-06T14:35:54.047Z,1005
2018-10-06T14:40:54.860Z,1005
2018-10-06T14:45:54.742Z,1004.8
2018-10-06T14:50:54.551Z,1004.8
2018-10-06T14:55:54.478Z,1004.8
2018-10-06T15:00:54.339Z,1004.8
2018-10-06T15:05:54.254Z,1004.8
2018-10-06T15:10:54.345Z,1004.8
2018-10-06T15:15:54.232Z,1004.6
2018-10-06T15:20:55.016Z,1004.6
2018-10-06T15:25:54.986Z,1004.6
2018-10-06T15:30:54.797Z,1004.6
2018-10-06T15:35:54.736Z,1004.5
2018-10-06T15:40:54.596Z,1004.5
2018-10-06T15:45:54.367Z,1004.4
2018-10-06T15:50:54.145Z,1004.4
2018-10-06T15:55:54.940Z,1004.4
2018-10-06T16:00:54.952Z,1004.4
2018-10-06T16:05:54.862Z,1004.3
2018-10-06T16:10:54.708Z,1004.3
2018-10-06T16:15:54.504Z,1004.4
2018-10-06T16:20:54.447Z,1004.4
2018-10-06T16:25:54.184Z,1004.4
2018-10-06T16:30:55.049Z,1004.4
2018-10-06T16:35:54.808Z,1004.3
2018-10-06T16:40:54.603Z,1004.3
2018-10-06T16:45:54.463Z,1004.3
2018-10-06T16:50:54.218Z,1004.3
2018-10-06T16:55:54.379Z,1004.3
2018-10-06T17:00:55.153Z,1004.3
2018-10-06T17:05:54.646Z,1004.3
2018-10-06T17:10:54.712Z,1004.3
2018-10-06T17:15:54.462Z,1004.6
2018-10-06T17:20:54.299Z,1004.6
2018-10-06T17:25:55.057Z,1004.6
2018-10-06T17:30:55.056Z,1004.6
2018-10-06T17:35:54.775Z,1004.6
2018-10-06T17:40:54.725Z,1004.6
2018-10-06T17:45:54.442Z,1004.4
2018-10-06T17:50:55.159Z,1004.4
2018-10-06T17:55:55.148Z,1004.4
2018-10-06T18:00:55.192Z,1004.4
2018-10-06T18:05:55.114Z,1004.4
2018-10-06T18:10:54.476Z,1004.4
2018-10-06T18:15:55.183Z,1004.5
2018-10-06T18:20:54.966Z,1004.5
2018-10-06T18:25:54.851Z,1004.5
2018-10-06T18:30:54.764Z,1004.5
2018-10-06T18:35:54.474Z,1004.4
2018-10-06T18:40:55.297Z,1004.4
2018-10-06T18:45:55.116Z,1004.4
2018-10-06T18:50:54.894Z,1004.4
2018-10-06T18:55:54.715Z,1004.4
2018-10-06T19:00:54.579Z,1004.4
2018-10-06T19:05:54.754Z,1004.4
2018-10-06T19:10:54.532Z,1004.4
2018-10-06T19:15:54.420Z,1004.4
2018-10-06T19:20:55.281Z,1004.4
2018-10-06T19:25:55.254Z,1004.4
2018-10-06T19:30:55.096Z,1004.4
2018-10-06T19:35:55.322Z,1004.4
2018-10-06T19:40:55.159Z,1004.4
2018-10-06T19:45:55.058Z,1004.4
2018-10-06T19:50:54.936Z,1004.4
2018-10-06T19:55:54.813Z,1004.4
2018-10-06T20:00:54.694Z,1004.4
2018-10-06T20:05:54.737Z,1004.4
2018-10-06T20:10:54.651Z,1004.4
2018-10-06T20:15:54.479Z,1004.4
2018-10-06T20:20:55.334Z,1004.4
2018-10-06T20:25:55.046Z,1004.4
2018-10-06T20:30:54.957Z,1004.4
2018-10-06T20:35:54.837Z,1004.4
2018-10-06T20:40:54.636Z,1004.4
2018-10-06T20:45:55.533Z,1004.4
2018-10-06T20:50:55.346Z,1004.4
2018-10-06T20:55:55.073Z,1004.4
2018-10-06T21:00:55.052Z,1004.4
2018-10-06T21:05:55.236Z,1004.5
2018-10-06T21:10:54.857Z,1004.5
2018-10-06T21:15:54.651Z,1004.6
2018-10-06T21:20:55.449Z,1004.6
2018-10-06T21:25:55.209Z,1004.6
2018-10-06T21:30:55.106Z,1004.6
2018-10-06T21:35:55.302Z,1004.7
2018-10-06T21:40:55.215Z,1004.7
2018-10-06T21:45:55.006Z,1004.8
2018-10-06T21:50:54.801Z,1004.8
2018-10-06T21:55:54.842Z,1004.8
2018-10-06T22:00:55.752Z,1004.8
2018-10-06T22:05:54.977Z,1004.7
2018-10-06T22:10:55.130Z,1004.7
2018-10-06T22:15:54.981Z,1004.7
2018-10-06T22:20:54.843Z,1004.7
2018-10-06T22:25:54.571Z,1004.7
2018-10-06T22:30:55.433Z,1004.7
2018-10-06T22:35:55.386Z,1004.7
2018-10-06T22:40:55.185Z,1004.7
2018-10-06T22:45:54.890Z,1004.7
2018-10-06T22:50:54.721Z,1004.7
2018-10-06T22:55:55.440Z,1004.8
2018-10-06T23:00:55.603Z,1004.8
2018-10-06T23:05:55.597Z,1004.9
2018-10-06T23:10:54.663Z,1004.9
2018-10-06T23:15:55.366Z,1004.8
2018-10-06T23:20:55.170Z,1004.8
2018-10-06T23:25:55.117Z,1004.8
2018-10-06T23:30:55.625Z,1004.8
2018-10-06T23:35:54.972Z,1004.9
2018-10-06T23:40:54.922Z,1004.9
2018-10-06T23:45:55.827Z,1005
2018-10-06T23:50:55.602Z,1005
2018-10-06T23:55:55.280Z,1005
